createdAt,value
2023-01-09T00:00:24.749Z,63.38
2023-01-09T00:03:31.160Z,63.64
2023-01-09T00:06:36.562Z,63.64
2023-01-09T00:09:42.043Z,63.68
2023-01-09T00:12:47.514Z,63.74
2023-01-09T00:15:56.021Z,63.67
2023-01-09T00:19:03.447Z,63.67
2023-01-09T00:22:09.248Z,63.67
2023-01-09T00:25:16.173Z,63.62
2023-01-09T00:28:22.571Z,63.59
2023-01-09T00:31:28.062Z,63.54
2023-01-09T00:34:33.971Z,63.66
2023-01-09T00:37:40.153Z,63.63
2023-01-09T00:40:45.131Z,63.49
2023-01-09T00:44:04.168Z,63.62
2023-01-09T00:47:14.170Z,63.69
2023-01-09T00:50:24.879Z,63.65
2023-01-09T00:53:32.973Z,63.53
2023-01-09T00:56:40.768Z,63.47
2023-01-09T00:59:46.849Z,63.42
2023-01-09T01:02:52.409Z,63.35
2023-01-09T01:06:17.050Z,63.25
2023-01-09T01:09:26.519Z,63.27
2023-01-09T01:12:32.674Z,63.28
2023-01-09T01:15:39.364Z,63.23
2023-01-09T01:18:45.110Z,63.14
2023-01-09T01:21:50.534Z,63.48
2023-01-09T01:24:57.627Z,63.48
2023-01-09T01:28:03.341Z,63.54
2023-01-09T01:31:11.923Z,63.62
2023-01-09T01:34:17.965Z,63.54
2023-01-09T01:37:25.653Z,63.54
2023-01-09T01:40:32.586Z,63.43
2023-01-09T01:43:38.969Z,63.37
2023-01-09T01:46:45.987Z,63.56
2023-01-09T01:49:52.558Z,63.59
2023-01-09T01:53:02.340Z,63.42
2023-01-09T01:56:24.542Z,63.59
2023-01-09T01:59:44.927Z,63.44
2023-01-09T02:02:52.753Z,63.42
2023-01-09T02:05:59.756Z,63.42
2023-01-09T02:09:07.068Z,63.51
2023-01-09T02:12:13.430Z,63.57
2023-01-09T02:15:24.248Z,63.79
2023-01-09T02:19:08.657Z,63.81
2023-01-09T02:22:36.311Z,63.86
2023-01-09T02:26:35.540Z,63.86
2023-01-09T02:29:59.023Z,63.62
2023-01-09T02:33:20.936Z,63.52
2023-01-09T02:36:33.998Z,63.49
2023-01-09T02:39:49.159Z,63.57
2023-01-09T02:42:49.257Z,63.58
2023-01-09T02:45:55.585Z,64.11
2023-01-09T02:49:01.096Z,64.11
2023-01-09T02:52:13.204Z,63.83
2023-01-09T02:55:30.290Z,63.65
2023-01-09T02:59:11.149Z,63.43
2023-01-09T03:02:43.563Z,63.43
2023-01-09T03:05:59.561Z,63.65
2023-01-09T03:09:10.788Z,63.61
2023-01-09T03:12:31.901Z,63.60
2023-01-09T03:15:40.674Z,63.46
2023-01-09T03:18:46.895Z,63.47
2023-01-09T03:21:53.349Z,63.51
2023-01-09T03:24:59.264Z,63.50
2023-01-09T03:28:10.060Z,63.52
2023-01-09T03:31:14.827Z,63.47
2023-01-09T03:34:21.106Z,63.47
2023-01-09T03:37:27.026Z,63.49
2023-01-09T03:40:34.173Z,63.56
2023-01-09T03:43:40.116Z,63.51
2023-01-09T03:46:47.236Z,63.50
2023-01-09T03:49:53.657Z,63.52
2023-01-09T03:53:00.608Z,63.40
2023-01-09T03:56:11.356Z,63.33
2023-01-09T03:59:16.347Z,63.33
2023-01-09T04:02:21.738Z,63.38
2023-01-09T04:05:27.544Z,63.35
2023-01-09T04:08:34.685Z,63.35
2023-01-09T04:11:42.569Z,63.56
2023-01-09T04:14:48.473Z,63.52
2023-01-09T04:17:55.393Z,63.48
2023-01-09T04:21:03.189Z,63.65
2023-01-09T04:24:10.413Z,63.74
2023-01-09T04:27:16.037Z,63.64
2023-01-09T04:30:23.845Z,63.69
2023-01-09T04:33:29.318Z,63.81
2023-01-09T04:36:34.221Z,63.84
2023-01-09T04:39:39.692Z,63.82
2023-01-09T04:42:47.429Z,64.04
2023-01-09T04:45:54.097Z,63.75
2023-01-09T04:48:59.749Z,63.72
2023-01-09T04:52:06.874Z,63.61
2023-01-09T04:55:12.246Z,63.70
2023-01-09T04:58:18.154Z,63.78
2023-01-09T05:01:24.188Z,63.79
2023-01-09T05:04:29.898Z,63.80
2023-01-09T05:07:34.861Z,63.75
2023-01-09T05:10:41.026Z,63.56
2023-01-09T05:13:46.142Z,63.49
2023-01-09T05:16:52.387Z,63.53
2023-01-09T05:19:58.235Z,63.53
2023-01-09T05:23:05.056Z,63.53
2023-01-09T05:26:12.945Z,63.65
2023-01-09T05:29:19.417Z,63.79
2023-01-09T05:32:24.403Z,63.91
2023-01-09T05:35:31.107Z,64.29
2023-01-09T05:38:38.258Z,64.29
2023-01-09T05:41:43.812Z,64.17
2023-01-09T05:44:49.140Z,63.90
2023-01-09T05:47:54.829Z,63.72
2023-01-09T05:51:02.239Z,63.77
2023-01-09T05:54:10.876Z,63.58
2023-01-09T05:57:17.717Z,63.58
2023-01-09T06:00:24.598Z,63.83
2023-01-09T06:03:31.765Z,63.59
2023-01-09T06:06:38.750Z,63.59
2023-01-09T06:09:44.929Z,63.74
2023-01-09T06:12:55.087Z,63.74
2023-01-09T06:15:57.148Z,64.00
2023-01-09T06:18:43.044Z,63.86
2023-01-09T06:21:36.159Z,63.75
2023-01-09T06:24:27.781Z,63.59
2023-01-09T06:27:34.895Z,63.70
2023-01-09T06:30:41.038Z,63.81
2023-01-09T06:33:46.711Z,63.80
2023-01-09T06:36:52.922Z,63.73
2023-01-09T06:40:01.486Z,63.75
2023-01-09T06:43:12.754Z,63.79
2023-01-09T06:46:20.733Z,63.76
2023-01-09T06:49:34.758Z,63.71
2023-01-09T06:52:42.339Z,63.63
2023-01-09T06:55:49.286Z,63.65
2023-01-09T06:58:56.303Z,63.85
2023-01-09T07:02:01.651Z,63.90
2023-01-09T07:05:08.845Z,64.09
2023-01-09T07:08:15.788Z,64.19
2023-01-09T07:11:24.955Z,64.32
2023-01-09T07:14:31.205Z,64.46
2023-01-09T07:17:36.384Z,64.24
2023-01-09T07:20:42.337Z,64.43
2023-01-09T07:23:47.800Z,64.42
2023-01-09T07:26:53.470Z,64.36
2023-01-09T07:30:00.286Z,64.56
2023-01-09T07:33:06.513Z,64.37
2023-01-09T07:36:11.596Z,64.28
2023-01-09T07:39:17.551Z,64.21
2023-01-09T07:42:23.834Z,64.06
2023-01-09T07:45:28.715Z,64.13
2023-01-09T07:48:35.043Z,64.26
2023-01-09T07:51:41.677Z,64.41
2023-01-09T07:54:40.857Z,64.42
2023-01-09T07:57:27.265Z,64.30
2023-01-09T08:00:21.479Z,64.17
2023-01-09T08:03:07.150Z,64.29
2023-01-09T08:06:03.728Z,64.17
2023-01-09T08:08:50.784Z,64.31
2023-01-09T08:11:51.604Z,64.39
2023-01-09T08:14:39.275Z,64.38
2023-01-09T08:17:36.527Z,64.27
2023-01-09T08:20:24.233Z,64.20
2023-01-09T08:23:18.504Z,64.26
2023-01-09T08:26:23.453Z,64.22
2023-01-09T08:29:29.343Z,64.29
2023-01-09T08:32:35.020Z,64.34
2023-01-09T08:35:43.586Z,64.37
2023-01-09T08:38:49.112Z,64.22
2023-01-09T08:42:13.342Z,64.20
2023-01-09T08:45:37.909Z,64.28
2023-01-09T08:48:42.955Z,64.42
2023-01-09T08:51:47.777Z,64.33
2023-01-09T08:54:52.617Z,64.42
2023-01-09T08:58:06.192Z,64.28
2023-01-09T09:01:12.407Z,64.28
2023-01-09T09:04:18.008Z,64.21
2023-01-09T09:07:24.551Z,64.09
2023-01-09T09:10:34.527Z,64.13
2023-01-09T09:13:42.247Z,64.20
2023-01-09T09:16:50.714Z,64.13
2023-01-09T09:19:56.462Z,64.00
2023-01-09T09:23:03.652Z,63.93
2023-01-09T09:26:10.274Z,63.98
2023-01-09T09:29:16.524Z,64.03
2023-01-09T09:32:22.419Z,64.11
2023-01-09T09:35:31.107Z,64.26
2023-01-09T09:38:35.966Z,64.26
2023-01-09T09:42:37.475Z,64.29
2023-01-09T09:46:19.969Z,64.30
2023-01-09T09:49:29.448Z,64.15
2023-01-09T09:53:08.459Z,64.26
2023-01-09T09:56:09.066Z,64.33
2023-01-09T09:59:31.626Z,64.13
2023-01-09T10:03:01.100Z,64.11
2023-01-09T10:06:10.721Z,64.13
2023-01-09T10:09:52.138Z,64.18
2023-01-09T10:13:13.082Z,64.31
2023-01-09T10:16:36.913Z,64.34
2023-01-09T10:20:06.482Z,64.31
2023-01-09T10:24:00.344Z,64.28
2023-01-09T10:27:09.324Z,64.28
2023-01-09T10:30:33.044Z,64.23
2023-01-09T10:34:15.722Z,64.14
2023-01-09T10:37:49.096Z,64.09
2023-01-09T10:41:07.012Z,63.92
2023-01-09T10:44:41.937Z,63.95
2023-01-09T10:47:52.791Z,63.96
2023-01-09T10:50:57.633Z,63.98
2023-01-09T10:54:09.574Z,63.94
2023-01-09T10:57:23.388Z,63.94
2023-01-09T11:00:32.546Z,63.94
2023-01-09T11:03:37.727Z,64.07
2023-01-09T11:07:04.567Z,64.00
2023-01-09T11:10:22.499Z,63.96
2023-01-09T11:13:43.336Z,63.91
2023-01-09T11:16:50.527Z,64.10
2023-01-09T11:19:56.102Z,64.02
2023-01-09T11:23:03.792Z,63.91
2023-01-09T11:26:11.773Z,63.87
2023-01-09T11:29:36.192Z,64.02
2023-01-09T11:32:40.792Z,64.11
2023-01-09T11:35:48.365Z,64.15
2023-01-09T11:39:11.221Z,64.16
2023-01-09T11:42:17.673Z,64.03
2023-01-09T11:45:35.340Z,64.01
2023-01-09T11:48:49.190Z,63.99
2023-01-09T11:51:54.528Z,64.06
2023-01-09T11:55:14.318Z,63.89
2023-01-09T11:58:39.346Z,63.96
2023-01-09T12:02:16.233Z,63.90
2023-01-09T12:05:49.632Z,63.89
2023-01-09T12:09:28.693Z,63.77
2023-01-09T12:12:51.500Z,63.85
2023-01-09T12:16:02.578Z,63.99
2023-01-09T12:19:50.496Z,63.97
2023-01-09T12:23:29.825Z,63.95
2023-01-09T12:26:47.726Z,63.94
2023-01-09T12:30:27.065Z,64.03
2023-01-09T12:33:47.513Z,63.90
2023-01-09T12:37:06.891Z,63.81
2023-01-09T12:40:25.066Z,63.74
2023-01-09T12:44:03.450Z,63.81
2023-01-09T12:47:46.383Z,63.84
2023-01-09T12:51:35.256Z,63.79
2023-01-09T12:54:58.451Z,63.83
2023-01-09T12:58:12.284Z,63.93
2023-01-09T13:01:24.519Z,63.90
2023-01-09T13:04:50.601Z,63.81
2023-01-09T13:08:05.431Z,63.77
2023-01-09T13:11:22.583Z,63.84
2023-01-09T13:14:43.397Z,63.76
2023-01-09T13:17:58.603Z,63.63
2023-01-09T13:21:10.913Z,63.47
2023-01-09T13:24:35.595Z,63.53
2023-01-09T13:27:41.297Z,63.60
2023-01-09T13:31:16.703Z,63.70
2023-01-09T13:34:30.709Z,63.71
2023-01-09T13:37:45.752Z,63.75
2023-01-09T13:40:52.772Z,63.68
2023-01-09T13:44:13.805Z,63.69
2023-01-09T13:47:18.668Z,63.69
2023-01-09T13:50:37.172Z,63.56
2023-01-09T13:53:47.035Z,63.44
2023-01-09T13:57:36.801Z,63.63
2023-01-09T14:00:54.206Z,63.64
2023-01-09T14:04:00.834Z,63.71
2023-01-09T14:07:29.171Z,63.65
2023-01-09T14:10:47.262Z,63.70
2023-01-09T14:13:57.506Z,63.61
2023-01-09T14:17:03.598Z,63.68
2023-01-09T14:20:12.328Z,63.59
2023-01-09T14:23:35.300Z,63.65
2023-01-09T14:26:42.130Z,63.65
2023-01-09T14:29:58.069Z,63.60
2023-01-09T14:33:34.603Z,63.65
2023-01-09T14:36:40.918Z,63.62
2023-01-09T14:39:47.624Z,63.63
2023-01-09T14:42:55.104Z,63.65
2023-01-09T14:46:07.395Z,63.70
2023-01-09T14:50:03.347Z,63.77
2023-01-09T14:53:24.475Z,63.72
2023-01-09T14:56:44.796Z,63.75
2023-01-09T14:59:52.597Z,63.73
2023-01-09T15:02:59.860Z,63.56
2023-01-09T15:06:08.786Z,63.55
2023-01-09T15:09:38.712Z,63.63
2023-01-09T15:12:45.546Z,63.57
2023-01-09T15:15:50.872Z,63.57
2023-01-09T15:18:56.868Z,63.63
2023-01-09T15:22:18.734Z,63.60
2023-01-09T15:25:42.210Z,63.59
2023-01-09T15:28:48.043Z,63.59
2023-01-09T15:31:53.594Z,63.59
2023-01-09T15:35:01.789Z,63.56
2023-01-09T15:38:09.444Z,63.54
2023-01-09T15:41:27.319Z,63.56
2023-01-09T15:44:40.558Z,63.52
2023-01-09T15:47:47.694Z,63.57
2023-01-09T15:50:56.191Z,63.56
2023-01-09T15:54:05.098Z,63.55
2023-01-09T15:57:41.880Z,63.52
2023-01-09T16:00:53.040Z,63.50
2023-01-09T16:03:59.307Z,63.58
2023-01-09T16:07:07.914Z,63.55
2023-01-09T16:10:13.370Z,63.51
2023-01-09T16:13:21.873Z,63.49
2023-01-09T16:16:27.493Z,63.49
2023-01-09T16:20:01.381Z,63.53
2023-01-09T16:23:10.327Z,63.51
2023-01-09T16:26:23.570Z,63.57
2023-01-09T16:29:36.515Z,63.55
2023-01-09T16:32:38.726Z,63.50
2023-01-09T16:35:35.298Z,63.44
2023-01-09T16:38:41.917Z,63.47
2023-01-09T16:42:07.735Z,63.41
2023-01-09T16:45:13.609Z,63.38
2023-01-09T16:48:34.068Z,63.36
2023-01-09T16:51:41.018Z,63.36
2023-01-09T16:54:46.384Z,63.28
2023-01-09T16:57:53.656Z,63.34
2023-01-09T17:01:00.758Z,63.26
2023-01-09T17:04:08.387Z,63.21
2023-01-09T17:07:15.441Z,63.16
2023-01-09T17:10:25.244Z,63.22
2023-01-09T17:13:30.492Z,63.20
2023-01-09T17:16:40.953Z,63.20
2023-01-09T17:19:46.857Z,63.20
2023-01-09T17:22:52.924Z,63.23
2023-01-09T17:26:02.510Z,63.22
2023-01-09T17:29:11.388Z,63.07
2023-01-09T17:32:17.068Z,62.96
2023-01-09T17:35:25.632Z,63.04
2023-01-09T17:38:32.309Z,63.01
2023-01-09T17:41:38.130Z,62.97
2023-01-09T17:44:46.370Z,62.98
2023-01-09T17:47:51.741Z,62.86
2023-01-09T17:50:58.316Z,62.78
2023-01-09T17:54:04.412Z,62.81
2023-01-09T17:57:11.469Z,62.81
2023-01-09T18:00:18.852Z,62.82
2023-01-09T18:03:27.889Z,62.76
2023-01-09T18:06:37.152Z,62.66
2023-01-09T18:09:44.120Z,62.64
2023-01-09T18:12:53.134Z,62.72
2023-01-09T18:16:01.494Z,62.64
2023-01-09T18:19:07.985Z,62.61
2023-01-09T18:22:13.966Z,62.58
2023-01-09T18:25:22.962Z,62.55
2023-01-09T18:28:30.346Z,62.49
2023-01-09T18:31:36.289Z,62.45
2023-01-09T18:34:42.854Z,62.31
2023-01-09T18:37:50.889Z,62.30
2023-01-09T18:40:58.485Z,62.27
2023-01-09T18:44:08.001Z,62.29
2023-01-09T18:47:14.225Z,62.17
2023-01-09T18:50:22.242Z,62.25
2023-01-09T18:53:31.435Z,62.28
2023-01-09T18:56:37.836Z,62.17
2023-01-09T18:59:43.796Z,62.05
2023-01-09T19:02:49.929Z,62.11
2023-01-09T19:05:56.291Z,62.12
2023-01-09T19:09:03.515Z,61.98
2023-01-09T19:12:09.754Z,62.01
2023-01-09T19:15:19.145Z,61.85
2023-01-09T19:18:24.600Z,61.81
2023-01-09T19:21:36.106Z,61.85
2023-01-09T19:24:40.689Z,61.79
2023-01-09T19:27:46.438Z,61.78
2023-01-09T19:30:51.293Z,61.83
2023-01-09T19:33:58.279Z,61.83
2023-01-09T19:37:04.000Z,61.71
2023-01-09T19:40:10.748Z,61.65
2023-01-09T19:43:16.760Z,61.74
2023-01-09T19:46:24.207Z,61.78
2023-01-09T19:49:31.675Z,61.61
2023-01-09T19:52:38.979Z,61.59
2023-01-09T19:55:46.883Z,61.53
2023-01-09T19:58:53.245Z,61.53
2023-01-09T20:02:00.194Z,61.47
2023-01-09T20:05:07.932Z,61.44
2023-01-09T20:08:14.850Z,61.36
2023-01-09T20:11:21.775Z,61.25
2023-01-09T20:14:29.438Z,61.22
2023-01-09T20:17:36.498Z,61.22
2023-01-09T20:20:43.924Z,61.22
2023-01-09T20:23:49.293Z,61.19
2023-01-09T20:26:57.386Z,61.09
2023-01-09T20:30:03.032Z,61.02
2023-01-09T20:33:09.459Z,61.11
2023-01-09T20:36:17.716Z,61.17
2023-01-09T20:39:25.607Z,61.04
2023-01-09T20:42:31.411Z,61.09
2023-01-09T20:45:37.694Z,61.03
2023-01-09T20:48:44.157Z,61.08
2023-01-09T20:51:51.291Z,61.02
2023-01-09T20:55:00.494Z,60.92
2023-01-09T20:58:07.346Z,60.75
2023-01-09T21:01:16.414Z,60.84
2023-01-09T21:04:22.313Z,60.67
2023-01-09T21:07:22.110Z,60.61
2023-01-09T21:10:11.101Z,60.68
2023-01-09T21:13:05.075Z,60.65
2023-01-09T21:15:51.692Z,60.64
2023-01-09T21:18:45.631Z,60.62
2023-01-09T21:21:46.167Z,60.56
2023-01-09T21:24:50.601Z,60.44
2023-01-09T21:27:58.915Z,60.37
2023-01-09T21:31:04.620Z,60.51
2023-01-09T21:34:11.526Z,60.51
2023-01-09T21:37:17.496Z,60.30
2023-01-09T21:40:24.293Z,60.21
2023-01-09T21:43:50.706Z,60.13
2023-01-09T21:47:02.301Z,60.08
2023-01-09T21:50:07.070Z,60.08
2023-01-09T21:53:12.727Z,59.94
2023-01-09T21:56:18.702Z,59.90
2023-01-09T21:59:23.635Z,59.92
2023-01-09T22:02:34.422Z,59.98
2023-01-09T22:05:39.586Z,59.93
2023-01-09T22:08:45.203Z,59.87
2023-01-09T22:11:51.965Z,59.89
2023-01-09T22:14:57.687Z,59.88
2023-01-09T22:18:04.705Z,59.82
2023-01-09T22:21:12.369Z,59.69
2023-01-09T22:24:17.784Z,59.68
2023-01-09T22:27:23.366Z,59.63
2023-01-09T22:30:30.330Z,59.61
2023-01-09T22:33:36.120Z,59.67
2023-01-09T22:36:44.979Z,59.51
2023-01-09T22:39:51.240Z,59.39
2023-01-09T22:42:58.050Z,59.37
2023-01-09T22:46:04.276Z,59.35
2023-01-09T22:49:12.526Z,59.34
2023-01-09T22:52:19.885Z,59.33
2023-01-09T22:55:26.831Z,59.21
2023-01-09T22:58:32.034Z,59.23
2023-01-09T23:01:39.204Z,59.29
2023-01-09T23:04:46.412Z,59.32
2023-01-09T23:07:53.701Z,59.35
2023-01-09T23:10:59.674Z,59.36
2023-01-09T23:14:05.988Z,59.22
2023-01-09T23:17:12.622Z,59.17
2023-01-09T23:20:20.090Z,59.12
2023-01-09T23:23:27.889Z,59.05
2023-01-09T23:26:32.713Z,59.01
2023-01-09T23:29:38.802Z,59.06
2023-01-09T23:32:45.174Z,58.97
2023-01-09T23:35:51.920Z,58.89
2023-01-09T23:38:57.493Z,58.83
2023-01-09T23:42:20.530Z,58.77
2023-01-09T23:45:26.155Z,58.71
2023-01-09T23:48:32.682Z,58.61
2023-01-09T23:51:39.280Z,58.48
2023-01-09T23:54:45.139Z,58.40
2023-01-09T23:57:51.924Z,58.47
